Time;durP1;ratioP1;P1;durP2;ratioP2;P2;SDS_P1;SDS_P2;PMS_P1;PMS_P2;Temp;Humidity;BMP_temperature;BMP_pressure;BME280_temperature;BME280_humidity;BME280_pressure;Samples;Min_cycle;Max_cycle;Signal;HPM_P1;HPM_P2
2023/03/15 00:01:51;;;;;;;359.30;95.50;;;3.20;99.90;;;3.09;88.44;99417.50;4972374;28;20237;-81
2023/03/15 00:04:18;;;;;;;371.20;97.40;;;3.20;99.90;;;3.04;88.54;99419.13;4971242;28;20291;-80
2023/03/15 00:06:46;;;;;;;360.10;96.00;;;3.20;99.90;;;3.10;88.16;99421.88;4971689;28;20229;-85
2023/03/15 00:09:13;;;;;;;370.40;98.80;;;3.30;99.90;;;2.97;88.89;99432.03;4971376;28;20236;-80
2023/03/15 00:11:40;;;;;;;366.00;96.90;;;3.10;99.90;;;2.91;88.91;99442.31;4968594;28;20352;-81
2023/03/15 00:14:07;;;;;;;367.17;101.07;;;2.90;99.90;;;2.86;89.21;99442.22;4971294;28;20237;-81
2023/03/15 00:16:34;;;;;;;366.67;97.10;;;3.00;99.90;;;2.71;89.78;99458.38;4971320;28;20288;-82
2023/03/15 00:19:01;;;;;;;362.30;93.53;;;2.80;99.90;;;2.71;89.96;99470.56;4961959;28;20261;-81
2023/03/15 00:21:29;;;;;;;356.17;93.43;;;;;;;2.52;91.05;99477.00;4970785;28;20233;-84
2023/03/15 00:23:56;;;;;;;372.53;97.80;;;2.70;99.90;;;2.41;93.00;99515.00;4969268;28;20268;-80
2023/03/15 00:26:23;;;;;;;365.67;90.90;;;3.00;99.90;;;2.25;93.27;99522.41;4970837;28;20237;-81
2023/03/15 00:28:50;;;;;;;354.40;89.93;;;2.50;99.90;;;2.11;94.45;99535.91;4970200;28;20272;-81
2023/03/15 00:31:24;;;;;;;357.97;89.27;;;2.20;99.90;;;2.10;95.42;99555.00;4970617;28;20697;-81
2023/03/15 00:33:55;;;;;;;359.33;87.47;;;2.20;99.90;;;2.04;96.39;99573.97;4961614;28;20232;-81
2023/03/15 00:36:23;;;;;;;355.70;89.93;;;2.20;99.90;;;2.00;97.53;99592.09;4967202;28;20236;-81
2023/03/15 00:38:52;;;;;;;365.03;93.03;;;2.10;99.90;;;1.95;98.00;99599.75;4971266;28;20260;-80
2023/03/15 00:41:21;;;;;;;356.63;86.77;;;2.40;99.90;;;1.97;98.81;99612.84;4970427;28;20236;-80
2023/03/15 00:43:49;;;;;;;355.40;86.87;;;2.30;99.90;;;1.90;99.38;99624.81;4971215;28;20236;-81
2023/03/15 00:46:18;;;;;;;361.03;87.67;;;2.10;99.90;;;1.93;99.79;99630.13;4970685;28;20783;-85
2023/03/15 00:48:50;;;;;;;354.30;84.23;;;2.30;99.90;;;1.92;100.00;99641.38;4970914;28;20267;-80
2023/03/15 00:51:23;;;;;;;353.10;86.37;;;2.70;99.90;;;1.90;100.00;99656.09;4966965;28;20776;-79
2023/03/15 00:53:52;;;;;;;363.60;86.50;;;2.10;99.90;;;2.04;100.00;99659.13;4970916;28;20241;-80
2023/03/15 00:56:23;;;;;;;353.13;83.50;;;2.00;99.90;;;1.92;100.00;99668.34;4969129;28;20607;-79
2023/03/15 00:58:54;;;;;;;351.40;81.80;;;2.10;99.90;;;1.89;100.00;99680.41;4970648;28;20232;-80
2023/03/15 01:01:25;;;;;;;356.63;84.03;;;2.40;99.90;;;1.74;100.00;99688.63;4966112;28;20321;-82
2023/03/15 01:03:53;;;;;;;354.90;85.30;;;2.30;99.90;;;1.76;100.00;99709.53;4971616;28;20604;-79
2023/03/15 01:06:24;;;;;;;353.73;81.33;;;1.90;99.90;;;1.75;100.00;99716.47;4970490;28;20233;-79
2023/03/15 01:08:53;;;;;;;363.13;87.93;;;2.50;99.90;;;1.67;100.00;99723.16;4970577;28;20232;-80
2023/03/15 01:11:23;;;;;;;349.23;81.73;;;1.90;99.90;;;1.71;100.00;99731.94;4969847;28;20241;-79
2023/03/15 01:13:52;;;;;;;349.33;82.20;;;1.90;99.90;;;1.62;100.00;99732.53;4966901;28;20299;-80
2023/03/15 01:16:20;;;;;;;362.73;85.30;;;1.80;99.90;;;1.49;100.00;99749.47;4969440;28;20711;-81
2023/03/15 01:18:50;;;;;;;352.90;82.03;;;1.60;99.90;;;1.47;100.00;99761.56;4970300;28;20244;-80
2023/03/15 01:21:17;;;;;;;353.47;84.13;;;2.20;99.90;;;1.32;100.00;99766.25;4968227;28;20268;-80
2023/03/15 01:23:45;;;;;;;355.77;84.03;;;;;;;1.28;100.00;99770.44;4968974;28;20244;-83
2023/03/15 01:26:15;;;;;;;359.10;85.17;;;1.40;99.90;;;1.32;100.00;99778.38;4968812;28;20304;-81
2023/03/15 01:28:43;;;;;;;347.47;78.00;;;1.50;99.90;;;1.38;100.00;99779.47;4969049;28;20249;-82
2023/03/15 01:31:24;;;;;;;348.70;78.00;;;1.50;99.90;;;1.35;100.00;99776.78;4969555;28;20232;-80
2023/03/15 01:33:52;;;;;;;349.63;77.90;;;1.60;99.90;;;1.36;100.00;99778.53;4969723;28;20225;-80
2023/03/15 01:36:20;;;;;;;358.50;80.63;;;1.60;99.90;;;1.27;100.00;99786.00;4969923;28;20237;-79
2023/03/15 01:38:48;;;;;;;346.77;75.77;;;1.70;99.90;;;1.27;100.00;99788.59;4968872;28;20313;-79
2023/03/15 01:41:17;;;;;;;356.80;81.00;;;1.40;99.90;;;1.29;100.00;99787.81;4970051;28;20236;-83
2023/03/15 01:43:47;;;;;;;357.83;80.43;;;2.50;99.90;;;1.38;100.00;99799.44;4952593;28;20237;-81
2023/03/15 01:46:23;;;;;;;347.63;78.93;;;1.40;99.90;;;1.37;100.00;99806.38;4968423;28;20776;-79
2023/03/15 01:49:23;;;;;;;366.53;87.10;;;1.50;99.90;;;1.31;100.00;99807.88;4969725;28;20236;-80
2023/03/15 01:52:15;;;;;;;348.43;76.03;;;1.40;99.90;;;1.31;100.00;99816.56;4981978;28;20275;-80
2023/03/15 01:55:12;;;;;;;346.37;77.30;;;1.40;99.90;;;1.43;100.00;99821.31;4952256;28;20256;-80
2023/03/15 01:57:59;;;;;;;358.00;81.23;;;1.50;99.90;;;1.23;100.00;99821.47;4963912;28;20257;-79
2023/03/15 02:00:27;;;;;;;357.27;78.47;;;1.30;99.90;;;1.16;100.00;99824.69;4959728;28;20329;-79
2023/03/15 02:03:35;;;;;;;348.93;76.60;;;1.70;99.90;;;1.00;100.00;99829.28;4968537;28;20229;-81
2023/03/15 02:06:07;;;;;;;355.90;78.83;;;1.20;99.90;;;0.96;100.00;99833.47;4981200;28;20312;-81
2023/03/15 02:08:41;;;;;;;347.97;75.83;;;1.10;99.90;;;1.01;100.00;99846.66;4968677;28;20257;-79
2023/03/15 02:11:08;;;;;;;352.30;79.67;;;1.20;99.90;;;1.15;100.00;99848.94;4965726;28;20267;-80
2023/03/15 02:13:35;;;;;;;352.60;76.93;;;1.30;99.90;;;1.13;100.00;99857.53;4968121;28;20248;-79
2023/03/15 02:16:05;;;;;;;375.30;85.43;;;1.20;99.90;;;1.11;100.00;99869.63;4963311;28;20236;-81
2023/03/15 02:18:35;;;;;;;344.97;76.47;;;1.20;99.90;;;1.11;100.00;99874.81;4965423;28;20239;-79
2023/03/15 02:21:25;;;;;;;399.50;96.50;;;1.20;99.90;;;1.12;100.00;99880.09;4967936;28;20265;-81
2023/03/15 02:24:31;;;;;;;344.50;73.53;;;1.40;99.90;;;1.16;100.00;99886.28;4968276;28;20228;-81
2023/03/15 02:26:58;;;;;;;346.67;75.13;;;1.30;99.90;;;1.13;100.00;99883.56;4983533;28;20320;-82
2023/03/15 02:29:28;;;;;;;353.30;75.97;;;1.90;99.90;;;1.20;100.00;99903.81;4967199;28;20252;-81
2023/03/15 02:31:56;;;;;;;339.60;71.33;;;2.40;99.90;;;1.12;100.00;99900.03;4972819;28;20263;-79
2023/03/15 02:34:24;;;;;;;348.07;74.83;;;1.30;99.90;;;1.11;100.00;99899.16;4954577;28;20244;-80
2023/03/15 02:36:52;;;;;;;345.73;73.10;;;2.00;99.90;;;1.10;100.00;99904.28;4973406;28;20245;-80
2023/03/15 02:39:22;;;;;;;347.53;74.03;;;1.30;99.90;;;1.08;100.00;99914.66;4968379;28;20240;-79
2023/03/15 02:41:55;;;;;;;349.70;77.43;;;1.20;99.90;;;1.09;100.00;99934.66;4970649;28;20316;-80
2023/03/15 02:44:44;;;;;;;351.60;76.43;;;1.20;99.90;;;1.10;100.00;99932.94;4971776;28;20253;-79
2023/03/15 02:47:21;;;;;;;349.03;75.63;;;1.20;99.90;;;1.10;100.00;99933.81;4970214;28;20317;-83
2023/03/15 02:49:52;;;;;;;352.83;79.07;;;1.20;99.90;;;1.13;100.00;99944.34;4971172;28;20260;-81
2023/03/15 02:52:21;;;;;;;351.43;76.40;;;1.60;99.90;;;1.19;100.00;99951.50;4963356;28;20241;-79
2023/03/15 02:54:49;;;;;;;344.73;74.23;;;1.70;99.90;;;1.17;100.00;99963.59;4972644;28;20240;-80
2023/03/15 02:57:18;;;;;;;366.47;81.60;;;1.80;99.90;;;1.13;100.00;99970.41;4969867;28;20237;-80
2023/03/15 02:59:45;;;;;;;349.43;75.60;;;1.80;99.90;;;1.24;100.00;99968.22;4971147;28;20241;-79
2023/03/15 03:02:12;;;;;;;347.37;75.37;;;2.70;99.90;;;1.22;100.00;99969.88;4971813;28;20259;-80
2023/03/15 03:04:40;;;;;;;350.03;77.00;;;2.10;99.90;;;1.18;100.00;99962.75;4971967;28;20247;-79
2023/03/15 03:07:07;;;;;;;370.50;84.00;;;;;;;1.42;100.00;99968.06;4964427;23;20237;-76
2023/03/15 03:09:35;;;;;;;342.90;73.07;;;;;;;1.37;100.00;99970.50;4935048;28;20234;-76
2023/03/15 03:12:02;;;;;;;353.80;82.13;;;;;;;1.40;100.00;99965.38;4939401;28;20230;-79
2023/03/15 03:14:30;;;;;;;340.07;74.50;;;1.50;99.90;;;1.52;100.00;99963.25;4931691;28;20237;-79
2023/03/15 03:16:57;;;;;;;348.93;76.70;;;;;;;1.51;100.00;99961.47;4930535;28;20238;-78
2023/03/15 03:19:25;;;;;;;338.37;72.03;;;;;;;1.53;100.00;99962.41;4917692;29;20289;-79
2023/03/15 03:21:53;;;;;;;345.27;74.13;;;1.60;99.90;;;1.50;100.00;99956.19;4927373;28;20238;-77
2023/03/15 03:24:24;;;;;;;359.77;79.50;;;;;;;1.42;100.00;99945.50;4931929;28;20298;-77
2023/03/15 03:26:56;;;;;;;347.00;75.23;;;;;;;1.36;100.00;99944.38;4933260;28;20250;-77
2023/03/15 03:29:24;;;;;;;350.13;77.23;;;1.50;99.90;;;1.29;100.00;99938.00;4935478;28;20241;-77
2023/03/15 03:31:52;;;;;;;348.53;75.97;;;1.40;99.90;;;1.26;100.00;99950.91;4930747;28;20298;-77
2023/03/15 03:34:19;;;;;;;343.50;74.07;;;2.30;99.90;;;1.22;100.00;99946.44;4934948;28;20254;-77
2023/03/15 03:36:47;;;;;;;344.87;75.40;;;1.60;99.90;;;1.23;100.00;99951.69;4931943;28;20269;-77
2023/03/15 03:39:14;;;;;;;344.57;75.60;;;1.40;99.90;;;1.28;100.00;99957.06;4933193;28;20238;-76
2023/03/15 03:41:41;;;;;;;339.00;72.43;;;1.40;99.90;;;1.30;100.00;99958.06;4933431;28;20282;-75
2023/03/15 03:44:08;;;;;;;350.53;78.37;;;1.50;99.90;;;1.31;100.00;99954.63;4934115;28;20267;-76
2023/03/15 03:46:35;;;;;;;339.57;72.80;;;1.50;99.90;;;1.40;100.00;99965.38;4938798;28;20309;-76
2023/03/15 03:49:02;;;;;;;338.60;73.87;;;2.20;99.90;;;1.49;100.00;99964.84;4934705;28;20269;-77
2023/03/15 03:51:29;;;;;;;378.83;89.93;;;1.80;99.90;;;1.55;100.00;99965.97;4931323;28;20238;-76
2023/03/15 03:53:56;;;;;;;355.30;78.10;;;2.40;99.90;;;1.53;100.00;99966.75;4933062;28;20263;-76
2023/03/15 03:56:23;;;;;;;348.50;79.73;;;1.70;99.90;;;1.54;100.00;99966.78;4927015;28;20253;-76
2023/03/15 03:58:50;;;;;;;350.17;79.50;;;2.10;99.90;;;1.55;100.00;99970.28;4927223;28;20273;-76
2023/03/15 04:01:18;;;;;;;348.27;75.83;;;2.30;99.90;;;1.51;100.00;99964.06;4926794;28;20230;-76
2023/03/15 04:03:45;;;;;;;343.77;76.90;;;1.60;99.90;;;1.52;100.00;99965.84;4939303;28;20321;-77
2023/03/15 04:06:13;;;;;;;344.30;75.87;;;1.60;99.90;;;1.41;100.00;99956.75;4932881;28;20257;-76
2023/03/15 04:08:40;;;;;;;339.73;73.03;;;1.60;99.90;;;1.46;100.00;99965.63;4932228;28;20250;-76
2023/03/15 04:11:07;;;;;;;346.17;76.07;;;1.60;99.90;;;1.32;100.00;99953.78;4933435;28;20349;-77
2023/03/15 04:13:34;;;;;;;344.33;76.50;;;1.50;99.90;;;1.14;100.00;99964.34;4945771;28;20255;-77
2023/03/15 04:16:02;;;;;;;339.60;73.60;;;1.50;99.90;;;1.09;100.00;99972.81;4933817;28;20269;-77
2023/03/15 04:18:29;;;;;;;364.43;83.50;;;1.60;99.90;;;1.08;100.00;99984.97;4928695;28;20718;-76
2023/03/15 04:20:56;;;;;;;345.30;75.07;;;2.10;99.90;;;1.02;100.00;99992.53;4932446;28;20238;-76
2023/03/15 04:23:24;;;;;;;341.97;74.77;;;1.80;99.90;;;1.02;100.00;100005.53;4932011;28;20285;-76
2023/03/15 04:25:54;;;;;;;338.50;73.83;;;1.20;99.90;;;0.97;100.00;100001.88;4926898;28;20280;-76
2023/03/15 04:28:21;;;;;;;341.20;72.30;;;1.10;99.90;;;0.82;100.00;100019.47;4928938;28;20234;-76
2023/03/15 04:30:50;;;;;;;351.03;77.93;;;2.10;99.90;;;0.69;100.00;100031.09;4924747;28;20290;-77
2023/03/15 04:33:17;;;;;;;338.77;71.97;;;1.50;99.90;;;0.70;100.00;100045.88;4931902;28;20246;-76
2023/03/15 04:35:44;;;;;;;331.53;69.80;;;1.10;99.90;;;0.61;100.00;100046.38;4929179;28;20299;-77
2023/03/15 04:38:11;;;;;;;339.33;69.97;;;0.80;99.90;;;0.67;100.00;100057.88;4922804;28;20234;-77
2023/03/15 04:40:38;;;;;;;339.03;71.87;;;0.90;99.90;;;0.77;100.00;100060.03;4933282;28;20576;-77
2023/03/15 04:43:05;;;;;;;337.13;73.63;;;1.90;99.90;;;0.83;100.00;100060.28;4928252;28;20253;-77
2023/03/15 04:45:32;;;;;;;344.23;73.90;;;1.50;99.90;;;0.86;100.00;100060.41;4931006;28;20243;-76
2023/03/15 04:48:01;;;;;;;338.13;69.53;;;1.00;99.90;;;0.78;100.00;100057.50;4932906;28;20262;-76
2023/03/15 04:50:29;;;;;;;340.93;72.87;;;1.50;99.90;;;0.71;100.00;100062.38;4931578;28;20301;-77
2023/03/15 04:53:00;;;;;;;336.70;70.67;;;1.80;99.90;;;0.71;100.00;100073.69;4928940;28;20253;-76
2023/03/15 04:55:27;;;;;;;342.37;72.13;;;1.30;99.90;;;0.77;100.00;100068.72;4931518;28;20245;-76
2023/03/15 04:57:55;;;;;;;345.57;74.40;;;1.70;99.90;;;0.80;100.00;100071.47;4932453;28;20234;-77
2023/03/15 05:00:22;;;;;;;343.73;73.37;;;0.90;99.90;;;0.89;100.00;100081.38;4932301;28;20249;-77
2023/03/15 05:02:53;;;;;;;340.20;71.30;;;1.10;99.90;;;0.87;100.00;100083.91;4929618;28;20649;-78
2023/03/15 05:05:22;;;;;;;346.43;73.93;;;1.00;99.90;;;0.87;100.00;100091.72;4927585;28;20331;-78
2023/03/15 05:07:50;;;;;;;355.43;77.30;;;1.00;99.90;;;0.84;100.00;100088.09;4924353;28;20261;-77
2023/03/15 05:10:17;;;;;;;339.57;71.27;;;1.00;99.90;;;0.79;100.00;100081.81;4932567;28;20274;-77
2023/03/15 05:12:45;;;;;;;337.93;72.90;;;;;;;0.86;100.00;100092.53;4932876;28;20234;-77
2023/03/15 05:15:12;;;;;;;350.30;73.83;;;;;;;0.79;100.00;100094.81;4932451;28;20338;-77
2023/03/15 05:17:40;;;;;;;349.40;75.70;;;;;;;0.70;100.00;100099.63;4932402;28;20242;-78
2023/03/15 05:20:11;;;;;;;339.20;73.47;;;0.80;99.90;;;0.64;100.00;100105.47;4933157;28;20251;-78
2023/03/15 05:22:39;;;;;;;347.83;75.50;;;0.80;99.90;;;0.55;100.00;100105.06;4932391;28;20238;-78
2023/03/15 05:25:09;;;;;;;337.97;75.27;;;1.90;99.90;;;0.55;100.00;100115.47;4938392;28;20321;-77
2023/03/15 05:27:37;;;;;;;340.70;72.17;;;0.70;99.90;;;0.58;100.00;100126.91;4932420;28;20242;-78
2023/03/15 05:30:06;;;;;;;339.20;73.53;;;0.70;99.90;;;0.51;100.00;100123.97;4932692;28;20234;-78
2023/03/15 05:32:34;;;;;;;344.97;75.00;;;0.70;99.90;;;0.53;100.00;100135.34;4931888;28;20266;-78
2023/03/15 05:35:01;;;;;;;342.13;73.40;;;0.70;99.90;;;0.56;100.00;100148.47;4932732;28;20246;-78
2023/03/15 05:37:31;;;;;;;337.67;72.80;;;0.70;99.90;;;0.52;100.00;100154.38;4934622;28;20262;-78
2023/03/15 05:39:59;;;;;;;344.30;77.30;;;0.80;99.90;;;0.53;100.00;100158.75;4941924;28;20694;-78
2023/03/15 05:42:26;;;;;;;337.43;70.33;;;1.10;99.90;;;0.49;100.00;100172.44;4938809;28;20326;-78
2023/03/15 05:44:53;;;;;;;333.33;70.53;;;1.70;99.90;;;0.51;100.00;100176.00;4927028;28;20665;-78
2023/03/15 05:47:21;;;;;;;346.60;74.37;;;0.60;99.90;;;0.52;100.00;100186.47;4946464;28;20270;-77
2023/03/15 05:49:49;;;;;;;345.40;72.23;;;0.60;99.90;;;0.53;100.00;100188.25;4953550;28;20237;-79
2023/03/15 05:52:16;;;;;;;345.10;73.80;;;0.70;99.90;;;0.55;100.00;100203.94;4946848;28;20233;-79
2023/03/15 05:54:43;;;;;;;338.93;70.80;;;1.30;99.90;;;0.54;100.00;100207.38;4938481;28;20235;-77
2023/03/15 05:57:10;;;;;;;340.27;75.17;;;0.70;99.90;;;0.54;100.00;100212.56;4931811;28;20239;-78
2023/03/15 05:59:37;;;;;;;348.80;76.30;;;0.80;99.90;;;0.58;100.00;100219.69;4935781;28;20241;-76
2023/03/15 06:02:04;;;;;;;340.73;71.33;;;1.10;99.90;;;0.54;100.00;100213.47;4949558;28;20300;-76
2023/03/15 06:04:32;;;;;;;339.80;72.83;;;;;;;0.55;100.00;100219.56;4933439;28;20234;-77
2023/03/15 06:06:59;;;;;;;336.80;69.97;;;0.70;99.90;;;0.60;100.00;100225.84;4941676;28;20242;-78
2023/03/15 06:09:26;;;;;;;350.70;86.60;;;0.70;99.90;;;0.55;100.00;100230.84;4936236;28;20330;-76
2023/03/15 06:11:54;;;;;;;337.73;70.60;;;0.70;99.90;;;0.49;100.00;100240.09;4932741;28;20269;-76
2023/03/15 06:14:21;;;;;;;341.10;72.70;;;0.60;99.90;;;0.44;100.00;100245.09;4935133;28;20285;-77
2023/03/15 06:16:48;;;;;;;339.67;70.93;;;0.60;99.90;;;0.47;100.00;100258.22;4931843;28;20231;-77
2023/03/15 06:19:15;;;;;;;354.33;77.57;;;0.60;99.90;;;0.48;100.00;100259.13;4946693;28;20257;-77
2023/03/15 06:21:42;;;;;;;345.77;74.83;;;1.10;99.90;;;0.52;100.00;100268.84;4933602;28;20293;-77
2023/03/15 06:24:10;;;;;;;332.33;68.03;;;;;;;0.51;100.00;100274.88;4933180;28;20243;-77
2023/03/15 06:26:37;;;;;;;349.20;74.13;;;0.70;99.90;;;0.57;100.00;100282.97;4936762;28;20246;-77
2023/03/15 06:29:05;;;;;;;344.33;72.63;;;0.70;99.90;;;0.64;100.00;100290.22;4935874;28;20282;-77
2023/03/15 06:31:32;;;;;;;341.70;73.00;;;0.70;99.90;;;0.66;100.00;100301.59;4929624;28;20270;-77
2023/03/15 06:34:00;;;;;;;348.63;73.30;;;0.80;99.90;;;0.75;100.00;100308.94;4954671;28;20261;-78
2023/03/15 06:36:27;;;;;;;352.43;75.30;;;0.90;99.90;;;0.80;100.00;100313.53;4937990;28;20704;-78
2023/03/15 06:38:54;;;;;;;334.37;69.03;;;1.10;99.90;;;0.93;100.00;100320.19;4936852;28;20236;-77
2023/03/15 06:41:21;;;;;;;339.40;69.33;;;1.00;99.90;;;0.91;100.00;100317.50;4942075;28;20226;-77
2023/03/15 06:43:48;;;;;;;343.57;73.57;;;1.10;99.90;;;0.95;100.00;100324.63;4932942;28;20235;-77
2023/03/15 06:46:15;;;;;;;343.90;72.47;;;1.70;99.90;;;1.05;100.00;100332.88;4935181;28;20262;-77
2023/03/15 06:48:43;;;;;;;334.23;68.13;;;2.20;99.90;;;1.10;100.00;100336.56;4936628;28;20234;-77
2023/03/15 06:51:10;;;;;;;335.70;68.90;;;1.70;99.90;;;1.16;100.00;100334.25;4943957;28;20246;-79
2023/03/15 06:53:37;;;;;;;337.83;70.73;;;2.70;99.90;;;1.26;100.00;100329.50;4938187;28;20269;-77
2023/03/15 06:56:04;;;;;;;336.73;70.03;;;1.60;99.90;;;1.40;100.00;100343.19;4946335;28;20245;-77
2023/03/15 06:58:32;;;;;;;334.97;69.90;;;;;;;1.41;100.00;100328.44;4959658;28;20238;-77
2023/03/15 07:00:59;;;;;;;340.20;73.10;;;1.50;99.90;;;1.53;100.00;100322.03;4935651;28;20258;-77
2023/03/15 07:03:26;;;;;;;343.50;73.70;;;1.60;99.90;;;1.58;100.00;100330.06;4943601;28;20683;-77
2023/03/15 07:05:53;;;;;;;343.43;75.43;;;1.70;99.90;;;1.58;100.00;100330.06;4941672;28;20234;-77
2023/03/15 07:08:22;;;;;;;337.17;73.67;;;1.70;99.90;;;1.57;100.00;100325.66;4942812;28;20269;-77
2023/03/15 07:10:50;;;;;;;354.57;79.07;;;2.10;99.90;;;1.62;100.00;100323.25;4940627;28;20242;-77
2023/03/15 07:13:18;;;;;;;342.03;75.17;;;3.00;99.90;;;1.69;100.00;100325.31;4933532;28;20770;-77
2023/03/15 07:15:46;;;;;;;344.93;76.87;;;1.90;99.90;;;1.76;100.00;100329.94;4929851;28;20298;-78
2023/03/15 07:18:13;;;;;;;343.87;76.00;;;2.30;99.90;;;1.86;100.00;100327.78;4933749;28;20238;-77
2023/03/15 07:20:40;;;;;;;337.83;77.53;;;2.00;99.90;;;1.91;100.00;100326.25;4940743;28;20253;-76
2023/03/15 07:23:07;;;;;;;346.73;85.40;;;2.60;99.90;;;1.96;100.00;100317.75;4935810;29;20266;-77
2023/03/15 07:25:34;;;;;;;346.00;78.57;;;2.00;99.90;;;2.05;100.00;100324.22;4942910;28;20234;-77
2023/03/15 07:28:22;;;;;;;340.40;78.93;;;2.20;99.90;;;2.14;100.00;100322.00;4933665;28;20242;-77
2023/03/15 07:31:03;;;;;;;347.30;82.30;;;2.20;99.90;;;2.29;100.00;100324.31;4933551;29;20285;-77
2023/03/15 07:33:34;;;;;;;357.60;83.40;;;2.30;99.90;;;2.29;100.00;100321.72;4944945;28;20253;-77
2023/03/15 07:36:03;;;;;;;350.93;85.17;;;3.10;99.90;;;2.34;100.00;100320.19;4936470;28;20668;-77
2023/03/15 07:38:32;;;;;;;351.63;81.27;;;2.40;99.90;;;2.44;100.00;100314.50;4932428;28;20230;-77
2023/03/15 07:41:05;;;;;;;342.40;78.83;;;2.60;99.90;;;2.52;100.00;100320.03;4932000;29;20238;-77
2023/03/15 07:43:32;;;;;;;343.17;82.07;;;2.50;99.90;;;2.52;99.57;100306.97;4917639;28;20298;-77
2023/03/15 07:46:00;;;;;;;348.50;87.00;;;2.60;99.90;;;2.56;99.26;100312.38;4934738;28;20654;-77
2023/03/15 07:48:28;;;;;;;342.17;80.87;;;2.60;99.90;;;2.57;98.58;100305.44;4934029;28;20298;-77
2023/03/15 07:50:55;;;;;;;368.27;91.63;;;2.60;99.90;;;2.65;98.48;100293.59;4929604;28;20237;-78
2023/03/15 07:53:22;;;;;;;368.37;98.80;;;2.80;99.90;;;2.78;97.97;100297.56;4945148;28;20243;-77
2023/03/15 07:55:49;;;;;;;351.87;87.57;;;2.80;99.90;;;2.83;96.38;100282.94;4929840;28;20728;-77
2023/03/15 07:58:17;;;;;;;348.93;85.67;;;3.00;99.90;;;3.03;96.89;100301.97;4932241;28;20329;-77
2023/03/15 08:00:46;;;;;;;355.90;91.77;;;3.10;99.90;;;3.18;96.43;100308.66;4933073;28;20241;-77
2023/03/15 08:03:13;;;;;;;354.93;89.60;;;3.20;99.90;;;3.14;94.96;100285.84;4933011;28;20242;-77
2023/03/15 08:05:40;;;;;;;355.27;89.43;;;3.20;99.90;;;3.32;94.79;100290.84;4932935;28;20234;-77
2023/03/15 08:08:07;;;;;;;349.93;88.77;;;3.70;99.90;;;3.51;95.75;100316.81;4933225;28;20238;-77
2023/03/15 08:10:35;;;;;;;348.03;87.87;;;3.50;99.90;;;3.32;93.71;100276.88;4933323;28;20312;-77
2023/03/15 08:13:02;;;;;;;360.73;94.73;;;3.50;99.90;;;3.24;94.62;100279.22;4947320;28;20281;-78
2023/03/15 08:15:29;;;;;;;355.17;92.93;;;3.30;99.90;;;3.16;94.20;100276.34;4927510;28;20234;-77
2023/03/15 08:17:57;;;;;;;348.60;89.87;;;3.30;99.90;;;3.12;94.00;100276.19;4932866;28;20245;-77
2023/03/15 08:20:25;;;;;;;357.90;94.33;;;3.20;99.90;;;3.08;94.69;100280.41;4932530;28;20238;-78
2023/03/15 08:22:55;;;;;;;350.37;92.00;;;3.30;99.90;;;3.09;95.00;100291.75;4934020;28;20253;-77
2023/03/15 08:25:23;;;;;;;357.23;96.07;;;3.20;99.90;;;3.09;95.24;100290.03;4932467;28;20227;-77
2023/03/15 08:27:51;;;;;;;372.73;103.33;;;3.20;99.90;;;3.11;95.34;100298.81;4932688;28;20241;-77
2023/03/15 08:30:20;;;;;;;366.20;97.20;;;3.20;99.90;;;3.13;94.94;100291.03;4925747;28;20675;-77
2023/03/15 08:32:50;;;;;;;355.33;96.00;;;3.20;99.90;;;3.18;95.44;100302.53;4933507;28;20703;-77
2023/03/15 08:35:20;;;;;;;347.70;93.27;;;3.30;99.90;;;3.28;95.48;100307.25;4932502;28;20234;-78
2023/03/15 08:37:47;;;;;;;355.50;95.33;;;3.30;99.90;;;3.24;94.84;100299.25;4933490;28;20250;-78
2023/03/15 08:40:17;;;;;;;358.70;94.93;;;3.40;99.90;;;3.28;95.52;100306.38;5000614;23;20777;-80
2023/03/15 08:42:45;;;;;;;360.77;96.47;;;;;;;3.23;95.89;100314.03;4957495;28;20309;-79
2023/03/15 08:45:13;;;;;;;359.90;98.83;;;;;;;3.26;96.01;100314.16;4960111;28;20288;-79
2023/03/15 08:47:41;;;;;;;372.93;99.07;;;;;;;3.29;95.98;100327.31;4955143;28;20253;-81
2023/03/15 08:50:12;;;;;;;363.37;98.23;;;3.40;99.90;;;3.29;96.07;100329.06;4952084;28;20288;-81
2023/03/15 08:52:40;;;;;;;362.07;95.70;;;3.40;99.90;;;3.33;95.61;100331.84;4944125;28;20242;-80
2023/03/15 08:55:08;;;;;;;356.27;93.90;;;3.40;99.90;;;3.39;94.17;100310.25;4948833;28;20316;-78
2023/03/15 08:57:36;;;;;;;368.90;99.90;;;3.50;99.90;;;3.42;93.81;100299.91;4947799;28;20308;-78
2023/03/15 09:00:08;;;;;;;363.40;98.67;;;3.60;99.90;;;3.51;93.20;100292.38;4950119;28;20302;-78
2023/03/15 09:02:37;;;;;;;372.07;104.73;;;3.60;99.90;;;3.56;92.06;100275.13;4948096;28;20329;-79
2023/03/15 09:05:06;;;;;;;358.30;100.23;;;;;;;3.66;91.33;100260.66;4946996;28;20293;-78
2023/03/15 09:07:33;;;;;;;365.40;102.30;;;3.80;99.90;;;3.84;92.00;100284.78;4947227;28;20316;-78
2023/03/15 09:10:00;;;;;;;358.87;95.97;;;4.00;99.90;;;3.77;89.78;100256.66;4947093;28;20237;-77
2023/03/15 09:12:31;;;;;;;364.13;100.87;;;3.80;99.90;;;3.75;89.62;100255.72;4950819;28;20308;-78
2023/03/15 09:14:58;;;;;;;372.90;102.37;;;4.00;99.90;;;3.62;89.68;100240.47;4946611;28;20238;-78
2023/03/15 09:17:25;;;;;;;372.50;105.10;;;3.40;99.90;;;3.13;91.85;100259.66;4943055;28;20609;-79
2023/03/15 09:19:52;;;;;;;366.20;99.73;;;3.50;99.90;;;2.94;94.52;100284.25;4947505;28;20240;-78
2023/03/15 09:22:19;;;;;;;366.67;98.70;;;3.10;99.90;;;2.73;97.41;100320.88;4949956;28;20288;-80
2023/03/15 09:25:04;;;;;;;364.20;97.80;;;3.30;99.90;;;2.78;99.29;100363.72;4945644;28;20241;-78
2023/03/15 09:27:32;;;;;;;365.57;96.67;;;;;;;2.87;100.00;100387.59;4942843;28;20316;-78
2023/03/15 09:29:59;;;;;;;370.13;99.03;;;3.00;99.90;;;2.97;100.00;100401.00;4962882;28;20710;-79
2023/03/15 09:32:27;;;;;;;369.93;100.17;;;3.20;99.90;;;3.16;100.00;100432.22;4943816;28;20320;-78
2023/03/15 09:34:55;;;;;;;368.27;97.93;;;3.10;99.90;;;3.20;100.00;100447.19;4945054;28;20257;-80
2023/03/15 09:37:22;;;;;;;365.93;100.30;;;3.40;99.90;;;3.35;100.00;100471.31;4941237;28;20288;-78
2023/03/15 09:39:50;;;;;;;370.07;102.60;;;3.40;99.90;;;3.36;100.00;100475.69;4949616;28;20240;-78
2023/03/15 09:42:44;;;;;;;366.07;96.27;;;3.60;99.90;;;3.38;100.00;100479.28;4946181;28;20238;-77
2023/03/15 09:45:39;;;;;;;367.10;100.00;;;3.50;99.90;;;3.42;100.00;100491.63;4945811;28;20273;-81
2023/03/15 09:48:40;;;;;;;363.07;94.80;;;3.50;99.90;;;3.54;100.00;100504.28;4947147;28;20321;-78
2023/03/15 09:51:41;;;;;;;363.00;99.63;;;3.60;99.90;;;3.62;100.00;100507.19;4945962;28;20321;-78
2023/03/15 09:54:49;;;;;;;368.00;101.97;;;3.60;99.90;;;3.77;100.00;100510.38;4934115;28;20287;-77
2023/03/15 09:57:41;;;;;;;360.73;98.50;;;3.80;99.90;;;3.99;100.00;100515.59;4946827;29;20237;-77
2023/03/15 10:00:16;;;;;;;368.30;102.37;;;4.00;99.90;;;3.98;100.00;100503.34;4946354;28;20241;-78
2023/03/15 10:02:55;;;;;;;376.77;106.33;;;4.00;99.90;;;4.14;100.00;100500.44;4945194;28;20761;-77
2023/03/15 10:05:51;;;;;;;375.40;107.57;;;4.30;99.90;;;4.25;100.00;100498.19;4946641;28;20276;-77
2023/03/15 10:08:19;;;;;;;359.20;99.13;;;4.30;99.90;;;4.39;100.00;100496.94;4946377;29;20305;-78
2023/03/15 10:10:59;;;;;;;366.73;104.47;;;4.40;99.90;;;4.55;100.00;100500.09;4943365;29;20264;-79
2023/03/15 10:13:51;;;;;;;379.97;111.60;;;4.60;99.90;;;4.45;100.00;100489.31;4947679;28;20264;-77
2023/03/15 10:16:44;;;;;;;367.97;107.50;;;4.60;99.90;;;4.56;100.00;100473.06;4945884;28;20238;-77
2023/03/15 10:19:39;;;;;;;365.73;108.23;;;4.60;99.90;;;4.65;100.00;100466.41;4964875;28;20238;-77
2023/03/15 10:22:15;;;;;;;373.60;110.57;;;4.70;99.90;;;4.64;100.00;100459.41;4946035;28;20665;-76